createdAt,value
2022-08-14T00:01:10.157Z,21.6
2022-08-14T00:02:09.096Z,21.5
2022-08-14T00:04:35.942Z,21.6
2022-08-14T00:06:28.456Z,21.5
2022-08-14T00:12:33.144Z,21.3
2022-08-14T00:14:30.250Z,21.3
2022-08-14T00:16:41.236Z,21.2
2022-08-14T00:19:06.064Z,21.1
2022-08-14T00:20:42.862Z,21.1
2022-08-14T00:22:57.080Z,21
2022-08-14T00:24:48.439Z,21
2022-08-14T00:26:52.677Z,20.9
2022-08-14T00:28:54.484Z,20.9
2022-08-14T00:30:57.488Z,20.9
2022-08-14T00:33:00.517Z,20.9
2022-08-14T00:39:12.667Z,21
2022-08-14T00:41:15.710Z,21
2022-08-14T00:43:18.727Z,20.9
2022-08-14T00:45:22.133Z,20.9
2022-08-14T00:47:24.760Z,20.8
2022-08-14T00:49:27.772Z,20.8
2022-08-14T00:51:37.552Z,20.7
2022-08-14T00:53:36.949Z,20.8
2022-08-14T00:55:39.977Z,20.7
2022-08-14T00:57:42.998Z,20.7
2022-08-14T01:00:51.414Z,20.6
2022-08-14T01:07:04.943Z,20.7
2022-08-14T01:13:10.457Z,20.9
2022-08-14T01:15:14.780Z,20.8
2022-08-14T01:19:20.037Z,20.6
2022-08-14T01:23:41.690Z,20.5
2022-08-14T01:25:31.765Z,20.5
2022-08-14T01:29:58.965Z,20.5
2022-08-14T01:31:40.884Z,20.4
2022-08-14T01:34:00.496Z,20.5
2022-08-14T01:36:05.405Z,20.4
2022-08-14T01:37:56.275Z,20.4
2022-08-14T01:39:56.178Z,20.5
2022-08-14T01:41:59.175Z,20.3
2022-08-14T01:44:02.404Z,20.2
2022-08-14T01:46:06.761Z,20.3
2022-08-14T01:48:13.304Z,20.2
2022-08-14T01:50:14.424Z,20.1
2022-08-14T01:52:34.598Z,20.3
2022-08-14T01:54:20.519Z,20.1
2022-08-14T01:55:23.618Z,20.2
2022-08-14T01:59:37.521Z,20
2022-08-14T02:01:32.812Z,20
2022-08-14T02:03:40.515Z,19.9
2022-08-14T02:05:43.516Z,19.9
2022-08-14T02:09:55.864Z,20
2022-08-14T02:11:54.622Z,20.1
2022-08-14T02:13:55.705Z,20.1
2022-08-14T02:15:58.738Z,20.1
2022-08-14T02:18:04.914Z,20
2022-08-14T02:22:11.018Z,20
2022-08-14T02:24:40.037Z,20
2022-08-14T02:26:24.146Z,20.1
2022-08-14T02:28:56.300Z,20
2022-08-14T02:30:23.194Z,19.9
2022-08-14T02:32:30.458Z,19.8
2022-08-14T02:34:32.378Z,19.9
2022-08-14T02:37:03.800Z,19.8
2022-08-14T02:38:38.476Z,19.8
2022-08-14T02:40:41.497Z,19.8
2022-08-14T02:44:49.547Z,19.5
2022-08-14T02:46:53.698Z,19.3
2022-08-14T02:49:02.842Z,19.3
2022-08-14T02:51:00.739Z,19.5
2022-08-14T02:53:29.641Z,19.5
2022-08-14T02:55:32.289Z,19.5
2022-08-14T02:59:43.296Z,19.2
2022-08-14T03:01:50.452Z,19.2
2022-08-14T03:03:47.565Z,19.2
2022-08-14T03:05:50.651Z,19
2022-08-14T03:07:53.681Z,19.2
2022-08-14T03:11:59.791Z,19.1
2022-08-14T03:14:05.973Z,19
2022-08-14T03:16:26.503Z,19
2022-08-14T03:18:12.093Z,19
2022-08-14T03:20:15.126Z,19
2022-08-14T03:34:52.918Z,18.9
2022-08-14T03:37:37.632Z,18.8
2022-08-14T03:40:48.800Z,18.6
2022-08-14T03:42:54.947Z,18.8
2022-08-14T03:47:03.136Z,18.6
2022-08-14T03:48:04.146Z,18.5
2022-08-14T03:50:07.207Z,18.6
2022-08-14T03:52:37.613Z,18.7
2022-08-14T03:54:15.705Z,18.5
2022-08-14T03:56:21.402Z,18.5
2022-08-14T04:02:32.785Z,18.6
2022-08-14T04:04:31.760Z,18.5
2022-08-14T04:06:34.818Z,18.6
2022-08-14T04:10:44.045Z,18.5
2022-08-14T04:14:50.173Z,18.6
2022-08-14T04:18:56.298Z,18.7
2022-08-14T04:20:59.327Z,18.5
2022-08-14T04:23:02.401Z,18.5
2022-08-14T04:25:08.619Z,18.5
2022-08-14T04:27:11.662Z,18.6
2022-08-14T04:29:16.355Z,18.6
2022-08-14T04:31:17.752Z,18.7
2022-08-14T04:33:21.215Z,18.5
2022-08-14T04:35:23.887Z,18.5
2022-08-14T04:39:33.146Z,18.5
2022-08-14T04:41:36.170Z,18.5
2022-08-14T04:43:39.619Z,18.5
2022-08-14T04:44:42.303Z,18.6
2022-08-14T04:48:50.999Z,18.7
2022-08-14T04:50:53.979Z,18.6
2022-08-14T04:52:57.670Z,18.8
2022-08-14T04:55:00.713Z,18.7
2022-08-14T05:01:12.778Z,18.6
2022-08-14T05:03:12.966Z,18.7
2022-08-14T05:05:16.035Z,18.9
2022-08-14T05:07:33.937Z,18.8
2022-08-14T05:09:28.976Z,18.9
2022-08-14T05:11:28.355Z,18.9
2022-08-14T05:13:42.322Z,19
2022-08-14T05:15:34.444Z,19
2022-08-14T05:17:53.850Z,19
2022-08-14T05:19:44.614Z,19.1
2022-08-14T05:21:59.471Z,19.3
2022-08-14T05:23:49.757Z,19.2
2022-08-14T05:25:52.839Z,19.3
2022-08-14T05:27:55.882Z,19.3
2022-08-14T05:29:58.952Z,19.6
2022-08-14T05:32:02.003Z,19.6
2022-08-14T05:34:05.070Z,19.7
2022-08-14T05:36:16.522Z,19.7
2022-08-14T05:38:30.842Z,19.8
2022-08-14T05:40:17.383Z,19.9
2022-08-14T05:43:23.519Z,20.1
2022-08-14T05:47:33.966Z,20.2
2022-08-14T05:49:35.749Z,20.4
2022-08-14T05:51:38.810Z,20.5
2022-08-14T05:55:45.013Z,20.9
2022-08-14T06:04:00.117Z,21.5
2022-08-14T06:10:09.153Z,22
2022-08-14T06:12:12.223Z,22.2
2022-08-14T06:14:21.332Z,22.5
2022-08-14T06:16:18.756Z,22.4
2022-08-14T06:18:25.174Z,22.5
2022-08-14T06:20:28.238Z,22.4
2022-08-14T06:22:30.266Z,22.6
2022-08-14T06:24:34.971Z,22.6
2022-08-14T06:26:36.263Z,22.8
2022-08-14T06:28:40.415Z,23.1
2022-08-14T06:30:47.015Z,23.2
2022-08-14T06:32:52.237Z,23.3
2022-08-14T06:35:03.662Z,23.3
2022-08-14T06:36:54.288Z,23.7
2022-08-14T06:41:31.344Z,24.3
2022-08-14T06:45:33.631Z,24
2022-08-14T06:47:36.578Z,24.2
2022-08-14T06:49:43.272Z,24.4
2022-08-14T06:53:45.411Z,24.2
2022-08-14T06:55:57.867Z,24.1
2022-08-14T06:59:57.346Z,24.5
2022-08-14T07:02:00.283Z,24.6
2022-08-14T07:06:06.253Z,25
2022-08-14T07:12:36.018Z,25.7
2022-08-14T07:14:20.903Z,25.8
2022-08-14T07:16:23.822Z,25.9
2022-08-14T07:18:26.706Z,26.2
2022-08-14T07:20:31.258Z,26.2
2022-08-14T07:22:32.655Z,26.3
2022-08-14T07:24:35.377Z,26.5
2022-08-14T07:26:38.927Z,26.9
2022-08-14T07:28:44.950Z,27
2022-08-14T07:30:50.826Z,27.1
2022-08-14T07:32:50.687Z,27.6
2022-08-14T07:33:53.696Z,28.1
2022-08-14T07:35:58.807Z,28.3
2022-08-14T07:37:59.417Z,28.8
2022-08-14T07:40:02.435Z,29.3
2022-08-14T07:42:08.296Z,29.5
2022-08-14T07:44:29.772Z,29.4
2022-08-14T07:48:16.794Z,29.7
2022-08-14T07:50:20.204Z,30.3
2022-08-14T07:52:30.467Z,31.4
2022-08-14T07:54:30.127Z,31.6
2022-08-14T07:58:38.905Z,31.2
2022-08-14T08:00:38.397Z,31.5
2022-08-14T08:02:41.223Z,30.8
2022-08-14T08:06:46.792Z,31.6
2022-08-14T08:11:01.835Z,32.5
2022-08-14T08:12:58.305Z,32.7
2022-08-14T08:15:05.915Z,32.3
2022-08-14T08:17:03.873Z,32.3
2022-08-14T08:19:12.688Z,32.4
2022-08-14T08:21:09.419Z,32.5
2022-08-14T08:23:12.174Z,32.8
2022-08-14T08:25:18.461Z,33.6
2022-08-14T08:27:21.333Z,33.7
2022-08-14T08:30:26.544Z,33.2
2022-08-14T08:32:29.686Z,33.1
2022-08-14T08:34:32.028Z,32.9
2022-08-14T08:36:34.744Z,33.1
2022-08-14T08:39:17.303Z,33.3
2022-08-14T08:40:43.385Z,33.2
2022-08-14T08:42:46.192Z,32.9
2022-08-14T08:44:48.790Z,34.3
2022-08-14T08:46:51.483Z,33.6
2022-08-14T08:50:56.910Z,33.8
2022-08-14T08:53:02.750Z,33.7
2022-08-14T08:57:07.922Z,34.2
2022-08-14T08:59:10.609Z,34.3
2022-08-14T09:01:13.292Z,33.5
2022-08-14T09:03:15.741Z,34
2022-08-14T09:05:18.305Z,34.2
2022-08-14T09:07:23.903Z,34.5
2022-08-14T09:09:26.436Z,34.4
2022-08-14T09:11:28.961Z,34.3
2022-08-14T09:13:33.061Z,34
2022-08-14T09:15:42.403Z,33.6
2022-08-14T09:17:36.530Z,33.4
2022-08-14T09:19:39.045Z,33.6
2022-08-14T09:21:44.612Z,33.1
2022-08-14T09:24:26.243Z,33.2
2022-08-14T09:26:00.384Z,33.9
2022-08-14T09:26:52.419Z,33.1
2022-08-14T09:28:54.883Z,33.2
2022-08-14T09:30:57.630Z,33.1
2022-08-14T09:35:08.358Z,32.8
2022-08-14T09:37:07.862Z,32.8
2022-08-14T09:39:21.099Z,32.8
2022-08-14T09:41:12.800Z,32.2
2022-08-14T09:43:15.241Z,32.6
2022-08-14T09:45:17.697Z,32.5
2022-08-14T09:47:20.150Z,32
2022-08-14T09:49:25.699Z,31.8
2022-08-14T09:51:32.980Z,31.7
2022-08-14T09:53:50.996Z,31.7
2022-08-14T09:55:36.809Z,31.5
2022-08-14T09:57:35.419Z,32
2022-08-14T09:59:37.841Z,32
2022-08-14T10:01:40.452Z,32
2022-08-14T10:03:45.787Z,31.7
2022-08-14T10:05:48.236Z,31.5
2022-08-14T10:07:50.641Z,31.7
2022-08-14T10:09:59.637Z,32
2022-08-14T10:11:58.950Z,31.9
2022-08-14T10:13:57.875Z,32.1
2022-08-14T10:16:00.313Z,32.2
2022-08-14T10:24:36.746Z,32.4
2022-08-14T10:26:33.734Z,32.4
2022-08-14T10:28:51.443Z,32.9
2022-08-14T10:30:41.612Z,32.5
2022-08-14T10:32:51.240Z,32.5
2022-08-14T10:36:50.169Z,32.6
2022-08-14T10:38:51.982Z,32.8
2022-08-14T10:40:59.571Z,33
2022-08-14T10:42:56.023Z,32.8
2022-08-14T10:45:01.527Z,32.8
2022-08-14T10:47:41.685Z,32.8
2022-08-14T10:49:06.391Z,32.7
2022-08-14T10:51:09.148Z,32.4
2022-08-14T10:53:11.327Z,32.3
2022-08-14T10:55:13.802Z,32.2
2022-08-14T10:57:17.058Z,32.4
2022-08-14T10:59:21.917Z,32.5
2022-08-14T11:01:24.364Z,32.3
2022-08-14T11:03:55.281Z,32.3
2022-08-14T11:07:31.826Z,32.1
2022-08-14T11:09:34.291Z,32.4
2022-08-14T11:11:37.405Z,32.8
2022-08-14T11:13:42.372Z,32.4
2022-08-14T11:15:44.859Z,32.4
2022-08-14T11:17:47.344Z,32.7
2022-08-14T11:18:50.898Z,33
2022-08-14T11:20:52.600Z,32.8
2022-08-14T11:23:02.979Z,32.9
2022-08-14T11:24:57.579Z,32.7
2022-08-14T11:27:03.144Z,32.5
2022-08-14T11:29:05.620Z,32.5
2022-08-14T11:31:08.074Z,32.8
2022-08-14T11:33:10.539Z,32.9
2022-08-14T11:35:13.019Z,33
2022-08-14T11:37:23.630Z,32.8
2022-08-14T11:39:18.001Z,33
2022-08-14T11:45:29.689Z,33.4
2022-08-14T11:47:35.503Z,33.6
2022-08-14T11:49:34.952Z,33.4
2022-08-14T11:51:35.994Z,33.8
2022-08-14T11:58:00.034Z,34.2
2022-08-14T12:03:57.139Z,34.4
2022-08-14T12:10:26.511Z,34.3
2022-08-14T12:12:04.556Z,34.3
2022-08-14T12:14:06.795Z,34.4
2022-08-14T12:17:13.180Z,33.7
2022-08-14T12:19:13.873Z,33.2
2022-08-14T12:21:19.283Z,33.8
2022-08-14T12:23:21.378Z,33.6
2022-08-14T12:25:24.932Z,33.7
2022-08-14T12:27:25.785Z,34.3
2022-08-14T12:29:28.000Z,33.8
2022-08-14T12:31:44.196Z,33.3
2022-08-14T12:33:33.634Z,33.4
2022-08-14T12:35:34.642Z,33.8
2022-08-14T12:37:40.260Z,33.1
2022-08-14T12:39:42.265Z,32.5
2022-08-14T12:41:44.462Z,33.3
2022-08-14T12:43:46.718Z,33.8
2022-08-14T12:45:48.948Z,33.9
2022-08-14T12:47:51.505Z,33.8
2022-08-14T12:49:53.465Z,33.5
2022-08-14T12:51:59.061Z,33.6
2022-08-14T12:54:01.044Z,33.1
2022-08-14T12:56:21.478Z,33.2
2022-08-14T12:58:06.078Z,33.8
2022-08-14T13:00:23.652Z,33.9
2022-08-14T13:02:13.623Z,34
2022-08-14T13:04:13.164Z,34.4
2022-08-14T13:06:17.578Z,35
2022-08-14T13:08:34.239Z,34.9
2022-08-14T13:10:46.941Z,34.7
2022-08-14T13:11:24.621Z,34.8
2022-08-14T13:13:26.793Z,34.6
2022-08-14T13:15:28.934Z,34.4
2022-08-14T13:19:36.358Z,34.7
2022-08-14T13:22:04.670Z,34.8
2022-08-14T13:23:40.622Z,34.7
2022-08-14T13:27:44.839Z,35.4
2022-08-14T13:29:47.447Z,35.2
2022-08-14T13:31:49.014Z,34.9
2022-08-14T13:33:54.236Z,35
2022-08-14T13:35:56.302Z,35
2022-08-14T13:37:58.367Z,34.3
2022-08-14T13:40:00.627Z,34.7
2022-08-14T13:42:02.522Z,34.8
2022-08-14T13:44:04.569Z,35.2
2022-08-14T13:46:06.648Z,35.4
2022-08-14T13:48:32.760Z,35
2022-08-14T13:50:13.892Z,35.2
2022-08-14T13:52:52.518Z,35.7
2022-08-14T13:54:19.543Z,36
2022-08-14T13:56:26.449Z,36.4
2022-08-14T13:58:30.414Z,35.8
2022-08-14T14:00:32.667Z,36.1
2022-08-14T14:02:33.715Z,36.6
2022-08-14T14:06:34.998Z,35.5
2022-08-14T14:08:59.079Z,33.6
2022-08-14T14:10:59.901Z,33.7
2022-08-14T14:13:02.092Z,35.3
2022-08-14T14:15:07.210Z,35.1
2022-08-14T14:17:09.320Z,35.8
2022-08-14T14:19:11.468Z,36.5
2022-08-14T14:21:13.571Z,36.3
2022-08-14T14:23:17.713Z,36.7
2022-08-14T14:25:19.445Z,36.7
2022-08-14T14:27:39.421Z,35.3
2022-08-14T14:29:25.976Z,34.1
2022-08-14T14:31:29.605Z,33.8
2022-08-14T14:33:46.938Z,33.4
2022-08-14T14:35:32.925Z,34.9
2022-08-14T14:37:33.917Z,36.7
2022-08-14T14:39:37.981Z,36.9
2022-08-14T14:41:43.987Z,37.2
2022-08-14T14:43:44.556Z,37.2
2022-08-14T14:45:45.819Z,37.5
2022-08-14T14:47:48.025Z,37.2
2022-08-14T14:49:54.652Z,37.1
2022-08-14T14:51:52.664Z,37.6
2022-08-14T14:53:54.733Z,37.6
2022-08-14T14:56:47.511Z,37.3
2022-08-14T14:58:02.018Z,37.3
2022-08-14T15:00:04.212Z,37.2
2022-08-14T15:02:06.378Z,37.2
2022-08-14T15:09:18.019Z,37.4
2022-08-14T15:11:20.726Z,37.1
2022-08-14T15:15:25.024Z,37
2022-08-14T15:17:28.451Z,36.9
2022-08-14T15:19:29.345Z,37.3
2022-08-14T15:21:31.936Z,37.4
2022-08-14T15:23:44.206Z,37.9
2022-08-14T15:25:38.950Z,38.6
2022-08-14T15:27:44.407Z,38.7
2022-08-14T15:34:01.004Z,37.5
2022-08-14T15:39:57.281Z,34.7
2022-08-14T15:41:59.290Z,34.2
2022-08-14T15:44:01.476Z,33.6
2022-08-14T15:46:03.665Z,34
2022-08-14T15:48:05.897Z,34.9
2022-08-14T15:50:08.110Z,36.1
2022-08-14T15:52:10.336Z,36.5
2022-08-14T15:54:16.372Z,35.8
2022-08-14T15:56:20.862Z,35.6
2022-08-14T15:58:20.237Z,35.4
2022-08-14T15:59:22.930Z,34.9
2022-08-14T16:01:50.588Z,34.8
2022-08-14T16:03:35.806Z,34.9
2022-08-14T16:05:38.042Z,34.7
2022-08-14T16:07:35.192Z,33.3
2022-08-14T16:09:37.509Z,33.4
2022-08-14T16:11:47.585Z,34.4
2022-08-14T16:13:42.820Z,35
2022-08-14T16:15:53.094Z,34.9
2022-08-14T16:17:46.867Z,35.4
2022-08-14T16:19:49.211Z,34.8
2022-08-14T16:22:02.584Z,33.6
2022-08-14T16:23:57.018Z,33.4
2022-08-14T16:25:59.392Z,33.1
2022-08-14T16:28:01.785Z,32.9
2022-08-14T16:30:04.328Z,32.6
2022-08-14T16:32:33.121Z,32.7
2022-08-14T16:34:44.007Z,32.6
2022-08-14T16:36:19.757Z,32.6
2022-08-14T16:38:35.701Z,32.4
2022-08-14T16:42:38.896Z,32.4
2022-08-14T16:44:33.722Z,32.3
2022-08-14T16:46:26.977Z,32.3
2022-08-14T16:48:54.746Z,32.3
2022-08-14T16:50:40.678Z,32.1
2022-08-14T16:52:54.572Z,32.2
2022-08-14T16:54:45.083Z,31.9
2022-08-14T16:55:53.251Z,31.9
2022-08-14T16:57:45.601Z,32
2022-08-14T16:59:52.597Z,31.8
2022-08-14T17:01:50.920Z,31.7
2022-08-14T17:03:56.724Z,31.8
2022-08-14T17:05:59.327Z,31.7
2022-08-14T17:08:01.997Z,31.7
2022-08-14T17:10:09.160Z,31.7
2022-08-14T17:12:07.925Z,31.6
2022-08-14T17:14:10.874Z,31.6
2022-08-14T17:20:53.206Z,31.5
2022-08-14T17:22:23.852Z,31.5
2022-08-14T17:24:55.737Z,31.4
2022-08-14T17:26:32.083Z,31.5
2022-08-14T17:28:50.181Z,31.2
2022-08-14T17:30:37.969Z,31.3
2022-08-14T17:32:44.339Z,31.3
2022-08-14T17:34:43.191Z,31.1
2022-08-14T17:36:45.957Z,31
2022-08-14T17:44:56.754Z,30.7
2022-08-14T17:47:02.672Z,30.8
2022-08-14T17:49:16.175Z,30.9
2022-08-14T17:51:08.119Z,30.8
2022-08-14T17:53:31.283Z,30.6
2022-08-14T17:56:01.455Z,30.7
2022-08-14T17:57:40.981Z,30.4
2022-08-14T17:59:42.663Z,30.5
2022-08-14T18:01:46.045Z,30.5
2022-08-14T18:03:53.001Z,30.5
2022-08-14T18:06:08.632Z,30.5
2022-08-14T18:08:32.643Z,30.7
2022-08-14T18:09:57.855Z,30.5
2022-08-14T18:11:59.179Z,30.6
2022-08-14T18:14:05.062Z,30.4
2022-08-14T18:16:07.819Z,30.4
2022-08-14T18:18:10.584Z,30.3
2022-08-14T18:21:23.073Z,30.4
2022-08-14T18:22:23.861Z,30.2
2022-08-14T18:24:28.085Z,30
2022-08-14T18:28:48.507Z,29.9
2022-08-14T18:30:33.215Z,29.7
2022-08-14T18:34:35.909Z,29.8
2022-08-14T18:36:46.732Z,29.6
2022-08-14T18:38:55.113Z,29.5
2022-08-14T18:40:44.313Z,29.4
2022-08-14T18:42:50.199Z,29.2
2022-08-14T18:44:52.992Z,29.2
2022-08-14T18:47:00.552Z,29.3
2022-08-14T18:50:01.560Z,29.2
2022-08-14T18:52:04.355Z,29
2022-08-14T18:54:10.071Z,28.9
2022-08-14T18:56:13.123Z,28.8
2022-08-14T18:58:27.692Z,28.8
2022-08-14T19:00:18.730Z,28.6
2022-08-14T19:04:27.693Z,28.6
2022-08-14T19:06:27.180Z,28.5
2022-08-14T19:08:30.006Z,28.6
2022-08-14T19:10:37.341Z,28.4
2022-08-14T19:12:43.548Z,28.4
2022-08-14T19:14:41.643Z,28.3
2022-08-14T19:16:48.262Z,28.2
2022-08-14T19:18:47.299Z,27.9
2022-08-14T19:20:52.781Z,27.7
2022-08-14T19:24:58.973Z,27.7
2022-08-14T19:27:01.861Z,27.6
2022-08-14T19:29:04.677Z,27.6
2022-08-14T19:31:07.493Z,27.5
2022-08-14T19:33:10.322Z,27.6
2022-08-14T19:35:16.508Z,27.6
2022-08-14T19:37:16.001Z,27.4
2022-08-14T19:39:22.022Z,27.4
2022-08-14T19:41:24.801Z,27.3
2022-08-14T19:43:55.755Z,27.4
2022-08-14T19:44:32.277Z,27.2
2022-08-14T19:46:39.372Z,27.2
2022-08-14T19:48:37.779Z,27.1
2022-08-14T19:50:44.215Z,27
2022-08-14T19:52:46.597Z,27
2022-08-14T19:54:51.152Z,26.9
2022-08-14T19:58:57.672Z,26.7
2022-08-14T20:00:57.970Z,26.7
2022-08-14T20:07:11.602Z,26.6
2022-08-14T20:11:43.394Z,26.5
2022-08-14T20:13:23.755Z,26.2
2022-08-14T20:15:21.352Z,26.3
2022-08-14T20:17:23.740Z,26.4
2022-08-14T20:19:28.715Z,26.2
2022-08-14T20:21:34.582Z,26.1
2022-08-14T20:23:38.454Z,26.1
2022-08-14T20:25:45.316Z,26.1
2022-08-14T20:27:41.160Z,26.1
2022-08-14T20:29:44.011Z,25.9
2022-08-14T20:31:46.893Z,25.9
2022-08-14T20:33:49.732Z,26
2022-08-14T20:35:55.755Z,25.8
2022-08-14T20:38:00.003Z,26
2022-08-14T20:40:01.535Z,25.9
2022-08-14T20:41:06.767Z,25.8
2022-08-14T20:43:07.363Z,25.9
2022-08-14T20:47:13.112Z,25.9
2022-08-14T20:49:19.281Z,25.7
2022-08-14T20:51:23.985Z,25.7
2022-08-14T20:53:24.893Z,25.6
2022-08-14T20:55:27.765Z,25.4
2022-08-14T20:57:43.621Z,25.3
2022-08-14T20:59:33.538Z,25.3
2022-08-14T21:01:36.432Z,25.3
2022-08-14T21:03:57.166Z,25.3
2022-08-14T21:05:46.521Z,25.3
2022-08-14T21:07:50.841Z,25.2
2022-08-14T21:10:06.246Z,25.2
2022-08-14T21:12:02.838Z,25.3
2022-08-14T21:14:19.555Z,25.2
2022-08-14T21:15:59.846Z,25.2
2022-08-14T21:18:05.888Z,25.1
2022-08-14T21:20:21.235Z,25
2022-08-14T21:24:38.469Z,25.1
2022-08-14T21:26:17.548Z,24.8
2022-08-14T21:30:46.699Z,24.8
2022-08-14T21:32:29.428Z,24.7
2022-08-14T21:34:32.694Z,24.8
2022-08-14T21:36:35.268Z,24.8
2022-08-14T21:38:58.773Z,24.7
2022-08-14T21:41:01.671Z,24.8
2022-08-14T21:43:05.027Z,24.8
2022-08-14T21:45:10.693Z,24.7
2022-08-14T21:47:16.112Z,24.6
2022-08-14T21:49:16.529Z,24.6
2022-08-14T21:51:54.094Z,24.7
2022-08-14T21:53:22.585Z,24.8
2022-08-14T21:55:25.268Z,24.6
2022-08-14T21:57:56.389Z,24.6
2022-08-14T21:59:34.264Z,24.7
2022-08-14T22:02:00.652Z,24.6
2022-08-14T22:03:46.407Z,24.7
2022-08-14T22:05:43.052Z,24.6
2022-08-14T22:07:46.118Z,24.5
2022-08-14T22:09:54.844Z,24.6
2022-08-14T22:11:56.193Z,24.3
2022-08-14T22:14:02.226Z,24.4
2022-08-14T22:16:01.950Z,24.3
2022-08-14T22:18:03.766Z,24.4
2022-08-14T22:20:06.717Z,24.3
2022-08-14T22:22:09.639Z,24.3
2022-08-14T22:24:12.582Z,24.2
2022-08-14T22:26:21.801Z,24.3
2022-08-14T22:28:21.583Z,24.1
2022-08-14T22:30:24.526Z,24
2022-08-14T22:32:35.165Z,24.1
2022-08-14T22:33:30.817Z,24
2022-08-14T22:37:36.407Z,24
2022-08-14T22:40:14.563Z,24.1
2022-08-14T22:41:55.919Z,24.1
2022-08-14T22:43:48.359Z,23.9
2022-08-14T22:45:55.181Z,23.9
2022-08-14T22:47:54.261Z,23.9
2022-08-14T22:50:28.839Z,24
2022-08-14T22:52:00.139Z,23.9
2022-08-14T23:00:15.085Z,23.8
2022-08-14T23:02:18.015Z,23.7
2022-08-14T23:04:35.477Z,23.7
2022-08-14T23:08:57.902Z,23.7
2022-08-14T23:10:34.560Z,23.6
2022-08-14T23:12:35.901Z,23.6
2022-08-14T23:14:38.846Z,23.6
2022-08-14T23:16:42.632Z,23.7
2022-08-14T23:18:44.730Z,23.8
2022-08-14T23:20:47.698Z,23.8
2022-08-14T23:22:51.435Z,23.7
2022-08-14T23:24:57.969Z,23.8
2022-08-14T23:26:59.685Z,23.8
2022-08-14T23:29:02.631Z,23.8
2022-08-14T23:30:05.691Z,23.7
2022-08-14T23:32:15.695Z,23.7
2022-08-14T23:34:11.574Z,23.7
2022-08-14T23:36:31.440Z,23.8
2022-08-14T23:38:29.886Z,23.8
2022-08-14T23:40:26.711Z,23.8
2022-08-14T23:42:40.205Z,23.6
2022-08-14T23:44:29.531Z,23.6
2022-08-14T23:46:34.947Z,23.6
2022-08-14T23:48:35.360Z,23.6
2022-08-14T23:50:38.759Z,23.5
2022-08-14T23:52:56.111Z,23.4
2022-08-14T23:54:50.022Z,23.4
2022-08-14T23:56:50.236Z,23.5
2022-08-14T23:58:53.171Z,23.6
